createdAt,value
2018-11-04T00:00:18.977Z,59.63
2018-11-04T00:02:47.862Z,55.63
2018-11-04T00:05:16.674Z,72.17
2018-11-04T00:07:46.378Z,97.00
2018-11-04T00:10:15.141Z,82.63
2018-11-04T00:12:43.651Z,101.10
2018-11-04T00:15:12.340Z,96.57
2018-11-04T00:17:40.945Z,100.63
2018-11-04T00:20:12.142Z,107.40
2018-11-04T00:22:40.308Z,113.67
2018-11-04T00:25:12.020Z,116.23
2018-11-04T00:27:40.683Z,119.77
2018-11-04T00:30:11.886Z,110.83
2018-11-04T00:32:41.304Z,118.80
2018-11-04T00:35:11.384Z,117.87
2018-11-04T00:37:40.681Z,126.13
2018-11-04T00:40:10.223Z,121.33
2018-11-04T00:42:39.727Z,116.50
2018-11-04T00:45:09.740Z,118.23
2018-11-04T00:47:39.653Z,117.87
2018-11-04T00:50:13.515Z,124.77
2018-11-04T00:52:43.057Z,117.50
2018-11-04T00:55:13.011Z,117.13
2018-11-04T00:57:43.382Z,121.00
2018-11-04T01:00:15.118Z,110.37
2018-11-04T01:02:44.795Z,109.30
2018-11-04T01:05:14.723Z,109.53
2018-11-04T01:07:43.018Z,107.20
2018-11-04T01:10:11.853Z,113.30
2018-11-04T01:12:40.644Z,126.03
2018-11-04T01:15:10.113Z,116.57
2018-11-04T01:17:38.465Z,115.87
2018-11-04T01:20:08.665Z,123.63
2018-11-04T01:22:36.906Z,109.93
2018-11-04T01:25:05.324Z,117.40
2018-11-04T01:27:33.536Z,110.67
2018-11-04T01:30:01.727Z,120.57
2018-11-04T01:32:30.075Z,134.30
2018-11-04T01:34:58.317Z,125.40
2018-11-04T01:37:26.560Z,121.87
2018-11-04T01:39:54.795Z,117.50
2018-11-04T01:42:23.011Z,116.30
2018-11-04T01:44:51.370Z,120.33
2018-11-04T01:47:19.618Z,118.37
2018-11-04T01:49:47.898Z,116.73
2018-11-04T01:52:16.225Z,104.93
2018-11-04T01:54:44.468Z,107.77
2018-11-04T01:57:12.826Z,121.50
2018-11-04T01:59:41.166Z,92.20
2018-11-04T02:02:09.357Z,87.47
2018-11-04T02:04:37.685Z,83.40
2018-11-04T02:07:05.956Z,80.20
2018-11-04T02:09:34.230Z,81.20
2018-11-04T02:12:02.526Z,75.53
2018-11-04T02:14:30.738Z,73.87
2018-11-04T02:16:59.001Z,67.60
2018-11-04T02:19:27.229Z,67.90
2018-11-04T02:21:55.520Z,53.20
2018-11-04T02:24:23.667Z,55.00
2018-11-04T02:26:51.798Z,47.20
2018-11-04T02:29:20.055Z,45.73
2018-11-04T02:31:48.229Z,50.43
2018-11-04T02:34:16.384Z,51.53
2018-11-04T02:36:44.571Z,44.33
2018-11-04T02:39:12.756Z,47.20
2018-11-04T02:41:40.879Z,48.50
2018-11-04T02:44:09.021Z,57.67
2018-11-04T02:46:37.187Z,60.10
2018-11-04T02:49:05.380Z,57.20
2018-11-04T02:51:33.573Z,56.40
2018-11-04T02:54:01.790Z,53.67
2018-11-04T02:56:29.984Z,58.30
2018-11-04T02:58:58.215Z,48.93
2018-11-04T03:01:26.336Z,54.43
2018-11-04T03:03:54.496Z,51.23
2018-11-04T03:06:23.057Z,52.17
2018-11-04T03:08:51.809Z,55.93
2018-11-04T03:11:20.288Z,53.93
2018-11-04T03:13:48.783Z,57.33
2018-11-04T03:16:17.206Z,58.53
2018-11-04T03:18:45.607Z,60.60
2018-11-04T03:21:14.134Z,56.87
2018-11-04T03:23:42.581Z,60.90
2018-11-04T03:26:10.956Z,61.37
2018-11-04T03:28:39.504Z,64.47
2018-11-04T03:31:07.965Z,71.33
2018-11-04T03:33:36.467Z,67.13
2018-11-04T03:36:05.142Z,74.70
2018-11-04T03:38:33.641Z,73.57
2018-11-04T03:41:02.028Z,65.63
2018-11-04T03:43:30.539Z,75.60
2018-11-04T03:45:59.276Z,81.97
2018-11-04T03:48:28.026Z,86.40
2018-11-04T03:50:56.512Z,76.80
2018-11-04T03:53:25.180Z,65.83
2018-11-04T03:55:55.171Z,69.27
2018-11-04T03:58:23.625Z,62.77
2018-11-04T04:00:52.336Z,58.63
2018-11-04T04:03:20.941Z,52.47
2018-11-04T04:05:49.473Z,53.40
2018-11-04T04:08:17.917Z,50.40
2018-11-04T04:10:46.445Z,52.33
2018-11-04T04:13:15.132Z,49.53
2018-11-04T04:15:43.426Z,55.37
2018-11-04T04:18:11.583Z,51.37
2018-11-04T04:20:39.735Z,46.30
2018-11-04T04:23:07.917Z,48.47
2018-11-04T04:25:36.146Z,51.90
2018-11-04T04:28:04.418Z,51.37
2018-11-04T04:30:32.603Z,55.57
2018-11-04T04:33:00.739Z,50.50
2018-11-04T04:35:28.950Z,52.63
2018-11-04T04:37:57.189Z,56.13
2018-11-04T04:40:25.366Z,52.77
2018-11-04T04:42:53.526Z,63.47
2018-11-04T04:45:21.725Z,58.17
2018-11-04T04:47:49.895Z,64.97
2018-11-04T04:50:18.068Z,57.57
2018-11-04T04:52:46.222Z,56.03
2018-11-04T04:55:14.444Z,63.57
2018-11-04T04:57:42.657Z,58.53
2018-11-04T05:00:10.871Z,54.57
2018-11-04T05:02:39.085Z,57.00
2018-11-04T05:05:07.310Z,63.57
2018-11-04T05:07:35.500Z,60.50
2018-11-04T05:10:04.005Z,60.83
2018-11-04T05:12:32.246Z,71.87
2018-11-04T05:15:00.454Z,59.70
2018-11-04T05:17:28.657Z,68.53
2018-11-04T05:19:56.839Z,63.73
2018-11-04T05:22:24.967Z,68.80
2018-11-04T05:24:53.130Z,67.83
2018-11-04T05:27:21.325Z,73.90
2018-11-04T05:29:49.486Z,76.37
2018-11-04T05:32:17.669Z,71.50
2018-11-04T05:34:46.003Z,69.00
2018-11-04T05:37:14.331Z,183.03
2018-11-04T05:39:42.726Z,107.03
2018-11-04T05:42:13.542Z,93.80
2018-11-04T05:44:41.909Z,88.00
2018-11-04T05:47:10.077Z,80.53
2018-11-04T05:49:38.208Z,74.03
2018-11-04T05:52:07.772Z,88.03
2018-11-04T05:54:36.155Z,90.87
2018-11-04T05:57:04.682Z,90.37
2018-11-04T05:59:33.090Z,94.73
2018-11-04T06:02:01.569Z,109.60
2018-11-04T06:04:29.980Z,106.50
2018-11-04T06:06:58.325Z,108.77
2018-11-04T06:09:26.738Z,100.60
2018-11-04T06:11:55.114Z,109.40
2018-11-04T06:14:23.478Z,92.33
2018-11-04T06:16:51.836Z,104.87
2018-11-04T06:19:20.312Z,111.73
2018-11-04T06:21:48.741Z,107.57
2018-11-04T06:24:17.081Z,104.30
2018-11-04T06:26:45.388Z,108.93
2018-11-04T06:29:13.719Z,131.03
2018-11-04T06:31:43.334Z,133.07
2018-11-04T06:34:11.711Z,125.60
2018-11-04T06:36:40.137Z,132.50
2018-11-04T06:39:09.066Z,146.57
2018-11-04T06:41:37.454Z,150.60
2018-11-04T06:44:08.713Z,151.63
2018-11-04T06:46:36.851Z,144.37
2018-11-04T06:49:05.271Z,153.13
2018-11-04T06:51:33.509Z,159.07
2018-11-04T06:54:01.755Z,145.27
2018-11-04T06:56:29.952Z,146.07
2018-11-04T06:58:58.233Z,154.70
2018-11-04T07:01:26.477Z,181.70
2018-11-04T07:04:05.842Z,173.97
2018-11-04T07:06:34.086Z,172.80
2018-11-04T07:09:03.425Z,167.07
2018-11-04T07:11:31.513Z,167.23
2018-11-04T07:13:59.700Z,172.10
2018-11-04T07:16:27.937Z,188.83
2018-11-04T07:18:56.106Z,206.80
2018-11-04T07:21:24.301Z,201.77
2018-11-04T07:23:52.533Z,216.23
2018-11-04T07:26:20.787Z,218.90
2018-11-04T07:28:52.358Z,222.30
2018-11-04T07:31:21.642Z,225.70
2018-11-04T07:33:50.010Z,230.20
2018-11-04T07:36:18.741Z,219.87
2018-11-04T07:38:47.985Z,231.13
2018-11-04T07:41:17.390Z,249.77
2018-11-04T07:43:46.359Z,265.20
2018-11-04T07:46:15.038Z,322.77
2018-11-04T07:48:44.529Z,341.50
2018-11-04T07:51:12.780Z,345.07
2018-11-04T07:53:41.000Z,344.20
2018-11-04T07:56:09.585Z,347.50
2018-11-04T07:58:37.769Z,276.77
2018-11-04T08:01:06.191Z,229.30
2018-11-04T08:03:34.776Z,214.33
2018-11-04T08:06:03.363Z,190.80
2018-11-04T08:08:32.225Z,171.13
2018-11-04T08:11:00.888Z,143.07
2018-11-04T08:13:31.384Z,121.03
2018-11-04T08:16:00.235Z,119.33
2018-11-04T08:18:29.457Z,102.07
2018-11-04T08:20:58.047Z,94.57
2018-11-04T08:23:26.516Z,87.70
2018-11-04T08:25:54.882Z,76.83
2018-11-04T08:28:23.140Z,74.13
2018-11-04T08:30:51.475Z,58.90
2018-11-04T08:33:19.778Z,63.63
2018-11-04T08:35:48.074Z,62.07
2018-11-04T08:38:16.263Z,52.20
2018-11-04T08:40:44.538Z,48.73
2018-11-04T08:43:12.754Z,46.37
2018-11-04T08:45:41.058Z,42.13
2018-11-04T08:48:09.338Z,43.10
2018-11-04T08:50:37.585Z,53.13
2018-11-04T08:53:05.983Z,59.93
2018-11-04T08:55:34.218Z,53.63
2018-11-04T08:58:02.503Z,59.20
2018-11-04T09:00:30.738Z,72.27
2018-11-04T09:02:59.127Z,78.97
2018-11-04T09:05:27.382Z,73.90
2018-11-04T09:07:55.579Z,80.83
2018-11-04T09:10:23.885Z,74.37
2018-11-04T09:12:52.089Z,65.60
2018-11-04T09:15:20.343Z,42.70
2018-11-04T09:18:00.314Z,42.97
2018-11-04T09:20:28.703Z,39.33
2018-11-04T09:22:57.085Z,36.87
2018-11-04T09:25:26.721Z,42.07
2018-11-04T09:27:57.546Z,50.97
2018-11-04T09:30:25.904Z,45.17
2018-11-04T09:32:54.253Z,37.83
2018-11-04T09:35:22.686Z,34.73
2018-11-04T09:37:51.011Z,33.17
2018-11-04T09:40:19.459Z,35.67
2018-11-04T09:42:47.718Z,35.93
2018-11-04T09:45:16.079Z,35.13
2018-11-04T09:47:44.479Z,33.30
2018-11-04T09:50:12.897Z,32.70
2018-11-04T09:52:41.316Z,31.33
2018-11-04T09:55:10.990Z,33.40
2018-11-04T09:57:39.255Z,32.00
2018-11-04T10:00:11.206Z,29.63
2018-11-04T10:02:39.574Z,31.80
2018-11-04T10:05:08.999Z,28.40
2018-11-04T10:07:37.489Z,29.90
2018-11-04T10:10:08.673Z,27.80
2018-11-04T10:12:36.891Z,32.30
2018-11-04T10:15:06.432Z,30.63
2018-11-04T10:17:34.687Z,29.40
2018-11-04T10:20:03.379Z,29.40
2018-11-04T10:22:31.353Z,28.20
2018-11-04T10:24:59.567Z,27.60
2018-11-04T10:27:27.885Z,27.83
2018-11-04T10:29:56.180Z,33.00
2018-11-04T10:32:24.381Z,34.03
2018-11-04T10:34:52.720Z,34.67
2018-11-04T10:37:21.224Z,34.70
2018-11-04T10:39:49.476Z,36.50
2018-11-04T10:42:18.517Z,38.67
2018-11-04T10:44:46.858Z,35.90
2018-11-04T10:47:15.568Z,33.60
2018-11-04T10:49:43.945Z,34.77
2018-11-04T10:52:12.169Z,32.37
2018-11-04T10:54:40.651Z,33.33
2018-11-04T10:57:09.140Z,33.07
2018-11-04T10:59:38.411Z,30.07
2018-11-04T11:02:06.629Z,36.73
2018-11-04T11:04:34.956Z,30.90
2018-11-04T11:07:03.228Z,31.73
2018-11-04T11:09:34.150Z,33.40
2018-11-04T11:12:02.411Z,29.20
2018-11-04T11:14:30.678Z,31.50
2018-11-04T11:16:59.358Z,29.30
2018-11-04T11:19:27.750Z,30.10
2018-11-04T11:21:55.986Z,25.80
2018-11-04T11:24:24.295Z,32.60
2018-11-04T11:26:52.633Z,32.97
2018-11-04T11:29:20.905Z,32.13
2018-11-04T11:31:49.151Z,34.90
2018-11-04T11:34:17.492Z,31.67
2018-11-04T11:36:45.845Z,36.83
2018-11-04T11:39:14.572Z,35.33
2018-11-04T11:41:43.380Z,31.20
2018-11-04T11:44:11.656Z,34.63
2018-11-04T11:46:40.144Z,30.63
2018-11-04T11:49:08.623Z,36.03
2018-11-04T11:51:36.880Z,35.97
2018-11-04T11:54:05.525Z,38.13
2018-11-04T11:56:33.957Z,42.87
2018-11-04T11:59:02.543Z,47.63
2018-11-04T12:01:30.914Z,36.50
2018-11-04T12:03:59.199Z,44.90
2018-11-04T12:06:28.488Z,54.93
2018-11-04T12:08:56.722Z,57.67
2018-11-04T12:14:20.609Z,34.93
2018-11-04T12:16:48.859Z,33.47
2018-11-04T12:19:17.145Z,33.10
2018-11-04T12:21:45.409Z,30.13
2018-11-04T12:24:13.704Z,30.80
2018-11-04T12:26:44.450Z,30.87
2018-11-04T12:29:12.679Z,30.10
2018-11-04T12:31:40.986Z,29.73
2018-11-04T12:34:10.486Z,27.97
2018-11-04T12:36:38.740Z,28.73
2018-11-04T12:39:08.667Z,29.60
2018-11-04T12:41:36.919Z,28.90
2018-11-04T12:44:05.287Z,29.33
2018-11-04T12:46:33.636Z,31.13
2018-11-04T12:49:01.955Z,31.73
2018-11-04T12:51:30.210Z,29.77
2018-11-04T12:53:58.544Z,30.43
2018-11-04T12:56:26.793Z,33.33
2018-11-04T12:58:55.089Z,31.57
2018-11-04T13:01:23.442Z,40.73
2018-11-04T13:03:51.720Z,36.50
2018-11-04T13:06:20.014Z,30.37
2018-11-04T13:08:48.273Z,33.77
2018-11-04T13:11:16.532Z,28.90
2018-11-04T13:13:44.915Z,27.60
2018-11-04T13:16:13.280Z,24.40
2018-11-04T13:18:41.980Z,24.03
2018-11-04T13:21:10.459Z,26.63
2018-11-04T13:23:39.880Z,23.67
2018-11-04T13:26:08.227Z,24.17
2018-11-04T13:28:36.557Z,22.97
2018-11-04T13:31:04.833Z,29.17
2018-11-04T13:33:33.238Z,24.93
2018-11-04T13:36:01.712Z,29.13
2018-11-04T13:38:30.034Z,26.90
2018-11-04T13:40:58.372Z,24.77
2018-11-04T13:43:26.651Z,27.00
2018-11-04T13:45:54.887Z,25.27
2018-11-04T13:48:23.091Z,26.97
2018-11-04T13:50:51.359Z,27.93
2018-11-04T13:53:19.650Z,27.80
2018-11-04T13:55:47.965Z,26.87
2018-11-04T13:58:16.275Z,24.43
2018-11-04T14:00:44.554Z,30.63
2018-11-04T14:03:12.898Z,28.30
2018-11-04T14:05:41.189Z,24.73
2018-11-04T14:08:09.453Z,23.30
2018-11-04T14:10:37.795Z,23.73
2018-11-04T14:13:06.078Z,23.30
2018-11-04T14:15:34.338Z,28.53
2018-11-04T14:18:02.617Z,27.67
2018-11-04T14:20:30.863Z,28.00
2018-11-04T14:22:59.160Z,33.97
2018-11-04T14:25:27.486Z,32.23
2018-11-04T14:27:55.866Z,30.23
2018-11-04T14:30:24.143Z,31.27
2018-11-04T14:32:53.389Z,30.23
2018-11-04T14:35:21.663Z,32.70
2018-11-04T14:37:49.888Z,32.90
2018-11-04T14:40:18.191Z,30.90
2018-11-04T14:42:46.436Z,29.83
2018-11-04T14:45:14.640Z,28.43
2018-11-04T14:47:42.946Z,27.80
2018-11-04T14:50:14.204Z,33.17
2018-11-04T14:52:42.459Z,30.20
2018-11-04T14:55:10.747Z,29.80
2018-11-04T14:57:38.973Z,35.43
2018-11-04T15:00:10.438Z,32.83
2018-11-04T15:02:38.916Z,32.87
2018-11-04T15:05:08.094Z,36.03
2018-11-04T15:07:41.246Z,34.27
2018-11-04T15:10:11.839Z,30.43
2018-11-04T15:12:40.400Z,33.83
2018-11-04T15:15:10.936Z,50.63
2018-11-04T15:17:39.544Z,35.63
2018-11-04T15:20:08.525Z,39.30
2018-11-04T15:22:40.749Z,33.37
2018-11-04T15:25:10.163Z,34.63
2018-11-04T15:27:38.606Z,34.50
2018-11-04T15:30:07.903Z,33.83
2018-11-04T15:32:37.323Z,33.77
2018-11-04T15:35:05.763Z,148.07
2018-11-04T15:37:34.281Z,40.87
2018-11-04T15:40:02.680Z,43.17
2018-11-04T15:42:31.178Z,38.43
2018-11-04T15:44:59.549Z,40.23
2018-11-04T15:47:27.865Z,40.50
2018-11-04T15:49:56.325Z,41.90
2018-11-04T15:52:24.522Z,47.67
2018-11-04T15:54:52.860Z,43.33
2018-11-04T15:57:21.678Z,47.10
2018-11-04T15:59:51.750Z,45.53
2018-11-04T16:02:25.310Z,46.70
2018-11-04T16:05:04.848Z,48.50
2018-11-04T16:08:17.911Z,46.37
2018-11-04T16:11:00.277Z,42.67
2018-11-04T16:13:29.224Z,41.07
2018-11-04T16:16:00.442Z,43.20
2018-11-04T16:18:30.801Z,45.83
2018-11-04T16:21:14.011Z,43.03
2018-11-04T16:23:44.012Z,47.27
2018-11-04T16:26:12.534Z,45.93
2018-11-04T16:28:42.407Z,43.63
2018-11-04T16:31:47.515Z,41.07
2018-11-04T16:34:17.679Z,41.93
2018-11-04T16:36:55.392Z,49.47
2018-11-04T16:39:25.195Z,44.53
2018-11-04T16:41:56.855Z,50.47
2018-11-04T16:44:28.469Z,112.93
2018-11-04T16:47:00.190Z,87.53
2018-11-04T16:49:29.594Z,70.10
2018-11-04T16:52:00.976Z,61.23
2018-11-04T16:57:43.371Z,65.23
2018-11-04T17:00:11.999Z,57.77
2018-11-04T17:02:40.446Z,61.43
2018-11-04T17:05:09.994Z,61.17
2018-11-04T17:07:38.504Z,62.90
2018-11-04T17:10:07.243Z,61.00
2018-11-04T17:12:35.561Z,60.80
2018-11-04T17:15:04.662Z,61.67
2018-11-04T17:17:32.960Z,68.20
2018-11-04T17:20:02.616Z,118.23
2018-11-04T17:22:30.844Z,67.90
2018-11-04T17:25:01.605Z,72.23
2018-11-04T17:27:29.933Z,63.53
2018-11-04T17:29:58.224Z,65.77
2018-11-04T17:32:26.510Z,76.53
2018-11-04T17:34:54.818Z,72.23
2018-11-04T17:37:23.052Z,69.33
2018-11-04T17:39:51.285Z,73.07
2018-11-04T17:42:19.473Z,71.07
2018-11-04T17:44:47.786Z,61.90
2018-11-04T17:47:15.974Z,64.77
2018-11-04T17:49:44.158Z,64.67
2018-11-04T17:52:12.412Z,58.63
2018-11-04T17:54:40.889Z,76.50
2018-11-04T17:57:09.250Z,95.00
2018-11-04T17:59:37.416Z,98.97
2018-11-04T18:02:06.045Z,77.70
2018-11-04T18:04:34.337Z,70.87
2018-11-04T18:07:03.996Z,66.33
2018-11-04T18:09:32.209Z,69.17
2018-11-04T18:12:01.447Z,60.30
2018-11-04T18:14:29.812Z,63.97
2018-11-04T18:16:58.226Z,62.83
2018-11-04T18:19:26.516Z,65.83
2018-11-04T18:21:54.724Z,64.27
2018-11-04T18:24:23.129Z,65.10
2018-11-04T18:26:51.532Z,61.73
2018-11-04T18:29:19.698Z,56.83
2018-11-04T18:31:48.035Z,58.67
2018-11-04T18:34:16.271Z,58.70
2018-11-04T18:36:44.635Z,55.07
2018-11-04T18:39:12.909Z,56.80
2018-11-04T18:41:41.124Z,59.47
2018-11-04T18:44:09.434Z,56.20
2018-11-04T18:46:37.652Z,60.43
2018-11-04T18:49:07.033Z,73.30
2018-11-04T18:51:35.817Z,63.87
2018-11-04T18:54:04.337Z,63.83
2018-11-04T18:56:34.501Z,65.50
2018-11-04T18:59:03.455Z,73.97
2018-11-04T19:01:32.330Z,74.57
2018-11-04T19:04:00.792Z,78.77
2018-11-04T19:06:29.005Z,76.33
2018-11-04T19:08:57.398Z,77.43
2018-11-04T19:11:25.753Z,78.27
2018-11-04T19:13:54.087Z,71.53
2018-11-04T19:16:22.418Z,70.50
2018-11-04T19:18:50.708Z,76.93
2018-11-04T19:21:18.848Z,75.77
2018-11-04T19:23:47.079Z,80.57
2018-11-04T19:26:16.489Z,85.03
2018-11-04T19:28:46.095Z,82.33
2018-11-04T19:31:14.372Z,97.23
2018-11-04T19:33:43.590Z,101.20
2018-11-04T19:36:11.830Z,126.07
2018-11-04T19:38:40.184Z,129.57
2018-11-04T19:41:08.384Z,147.93
2018-11-04T19:43:37.616Z,164.17
2018-11-04T19:46:05.849Z,175.33
2018-11-04T19:48:35.164Z,184.27
2018-11-04T19:51:03.535Z,213.47
2018-11-04T19:53:36.239Z,227.40
2018-11-04T19:56:06.106Z,238.20
2018-11-04T19:58:34.565Z,231.27
2018-11-04T20:01:02.807Z,209.30
2018-11-04T20:03:31.121Z,184.03
2018-11-04T20:05:59.464Z,168.40
2018-11-04T20:08:27.690Z,153.13
2018-11-04T20:10:56.049Z,141.97
2018-11-04T20:13:29.787Z,129.37
2018-11-04T20:15:58.015Z,124.10
2018-11-04T20:18:31.723Z,125.03
2018-11-04T20:20:59.957Z,115.80
2018-11-04T20:23:29.164Z,138.67
2018-11-04T20:26:00.743Z,136.67
2018-11-04T20:28:29.103Z,142.70
2018-11-04T20:30:57.297Z,139.17
2018-11-04T20:33:25.617Z,145.13
2018-11-04T20:35:53.961Z,136.67
2018-11-04T20:38:27.676Z,116.20
2018-11-04T20:41:01.295Z,110.90
2018-11-04T20:43:29.606Z,109.17
2018-11-04T20:45:57.846Z,98.43
2018-11-04T20:48:31.585Z,94.93
2018-11-04T20:51:03.957Z,93.93
2018-11-04T20:53:32.345Z,94.67
2018-11-04T20:56:06.070Z,86.33
2018-11-04T20:58:35.325Z,87.20
2018-11-04T21:01:03.526Z,98.63
2018-11-04T21:03:31.830Z,89.30
2018-11-04T21:06:00.157Z,94.40
2018-11-04T21:08:30.021Z,99.73
2018-11-04T21:10:58.320Z,91.70
2018-11-04T21:13:27.079Z,93.33
2018-11-04T21:15:55.436Z,93.90
2018-11-04T21:18:23.677Z,88.20
2018-11-04T21:20:51.914Z,79.43
2018-11-04T21:23:20.280Z,86.37
2018-11-04T21:25:48.573Z,85.20
2018-11-04T21:28:16.908Z,82.13
2018-11-04T21:30:45.015Z,88.23
2018-11-04T21:33:13.257Z,95.30
2018-11-04T21:35:41.604Z,95.43
2018-11-04T21:38:09.859Z,100.77
2018-11-04T21:40:38.134Z,93.97
2018-11-04T21:43:06.695Z,95.10
2018-11-04T21:45:34.880Z,94.40
2018-11-04T21:48:03.146Z,100.37
2018-11-04T21:50:31.457Z,95.20
2018-11-04T21:52:59.849Z,95.20
2018-11-04T21:55:28.393Z,90.83
2018-11-04T21:57:56.512Z,104.83
2018-11-04T22:00:24.898Z,113.23
2018-11-04T22:02:53.640Z,97.63
2018-11-04T22:05:21.780Z,111.53
2018-11-04T22:07:50.137Z,122.27
2018-11-04T22:10:18.488Z,119.60
2018-11-04T22:12:46.833Z,139.60
2018-11-04T22:15:15.156Z,128.53
2018-11-04T22:17:43.479Z,140.13
2018-11-04T22:20:12.606Z,136.53
2018-11-04T22:22:40.838Z,129.80
2018-11-04T22:25:09.972Z,147.37
2018-11-04T22:27:38.253Z,145.03
2018-11-04T22:30:08.787Z,147.10
2018-11-04T22:32:37.271Z,172.87
2018-11-04T22:35:06.024Z,176.87
2018-11-04T22:37:34.299Z,217.87
2018-11-04T22:40:02.537Z,220.03
2018-11-04T22:42:30.722Z,239.70
2018-11-04T22:44:58.962Z,241.50
2018-11-04T22:47:27.180Z,238.83
2018-11-04T22:49:56.441Z,248.33
2018-11-04T22:52:24.621Z,253.03
2018-11-04T22:54:52.817Z,233.33
2018-11-04T22:57:21.040Z,233.83
2018-11-04T22:59:49.248Z,223.03
2018-11-04T23:02:17.471Z,232.20
2018-11-04T23:04:51.166Z,230.83
2018-11-04T23:07:19.371Z,226.50
2018-11-04T23:09:47.618Z,216.13
2018-11-04T23:12:15.780Z,240.17
2018-11-04T23:14:43.933Z,225.90
2018-11-04T23:17:12.102Z,209.27
2018-11-04T23:19:40.326Z,189.47
2018-11-04T23:22:08.502Z,204.77
2018-11-04T23:24:36.800Z,171.40
2018-11-04T23:27:05.280Z,167.10
2018-11-04T23:29:33.416Z,173.67
2018-11-04T23:32:01.691Z,163.37
2018-11-04T23:34:29.941Z,173.50
2018-11-04T23:36:58.072Z,154.67
2018-11-04T23:39:26.287Z,154.30
2018-11-04T23:41:54.460Z,157.83
2018-11-04T23:44:22.637Z,148.83
2018-11-04T23:46:50.841Z,126.93
2018-11-04T23:49:18.965Z,131.90
2018-11-04T23:51:47.174Z,142.30
2018-11-04T23:54:15.412Z,131.47
2018-11-04T23:56:43.605Z,131.23
2018-11-04T23:59:11.860Z,132.37
